Terminal Aerodrome Forecast
Issued by NWS Nashville, TN

Home | Current Version | Previous Version | Text Only | Print | Product List | Glossary On
Versions: 1 2 3 4 5 6 7 8 9 10 11 12 13 14 15
000
FTUS44 KOHX 281958 AAA
TAFCSV
TAF AMD
KCSV 281958Z 2820/2918 24004KT 5SM -SHRA BR BKN015 OVC025
     FM290000 23004KT 6SM BR VCSH OVC015
     FM290600 24002KT 2SM BR OVC008=

USA.gov is the U.S. government's official web portal to all federal, state and local government web resources and services.